Terminal Aerodrome Forecast
Issued by NWS Portland, OR

Home | Current Version | Previous Version | Text Only | Print | Product List | Glossary On
Versions: 1 2 3 4 5 6 7 8 9 10 11 12 13 14 15 16 17 18 19 20 21 22 23 24
000
FTUS46 KPQR 180110 AAA
TAFEUG
TAF AMD
KEUG 180110Z 1801/1824 28006KT P6SM SCT025 BKN050
     FM180800 18003KT 2SM BR FEW004 SCT015 BKN100
     FM181400 17007KT P6SM SCT015 BKN050 OVC100
     FM181700 17014G22KT P6SM -SHRA SCT025 BKN035=

USA.gov is the U.S. government's official web portal to all federal, state and local government web resources and services.